Time;durP1;ratioP1;P1;durP2;ratioP2;P2;SDS_P1;SDS_P2;PMS_P1;PMS_P2;Temp;Humidity;BMP_temperature;BMP_pressure;BME280_temperature;BME280_humidity;BME280_pressure;Samples;Min_cycle;Max_cycle;Signal;HPM_P1;HPM_P2
2021/10/17 00:00:26;;;;;;;6.50;5.55;;;7.70;77.60;;;6.18;81.07;96340.34;4954897;28;20049;-69
2021/10/17 00:02:52;;;;;;;8.73;6.15;;;7.60;76.90;;;6.13;80.43;96339.03;4988678;28;20042;-69
2021/10/17 00:05:21;;;;;;;8.15;5.90;;;7.60;77.00;;;6.08;80.71;96341.28;4970491;28;20408;-68
2021/10/17 00:07:47;;;;;;;8.20;6.20;;;7.50;77.00;;;6.04;80.44;96339.13;4958352;28;20137;-67
2021/10/17 00:10:17;;;;;;;8.27;6.57;;;7.50;77.10;;;6.01;80.41;96339.44;4966448;28;20100;-68
2021/10/17 00:12:43;;;;;;;7.05;6.28;;;7.50;77.40;;;5.96;80.96;96334.69;4974316;28;20178;-67
2021/10/17 00:15:12;;;;;;;8.30;6.50;;;7.40;77.70;;;5.95;81.60;96340.06;4957147;28;20531;-67
2021/10/17 00:17:39;;;;;;;8.32;6.63;;;7.40;78.00;;;5.94;80.84;96336.63;4958106;28;20451;-67
2021/10/17 00:20:06;;;;;;;7.60;6.30;;;7.40;78.40;;;5.92;81.43;96332.53;4989211;28;20197;-67
2021/10/17 00:22:32;;;;;;;10.13;7.03;;;7.50;78.30;;;5.91;81.55;96334.34;4973147;28;20042;-68
2021/10/17 00:24:58;;;;;;;8.55;6.88;;;7.40;78.30;;;5.94;81.46;96336.63;4973124;28;20034;-66
2021/10/17 00:27:23;;;;;;;9.40;6.97;;;7.50;78.40;;;5.95;82.01;96353.94;4970569;28;20117;-68
2021/10/17 00:29:49;;;;;;;9.48;7.80;;;7.50;78.40;;;5.94;81.38;96346.25;4976495;28;20054;-68
2021/10/17 00:32:15;;;;;;;9.30;7.22;;;7.50;78.50;;;5.94;81.85;96344.47;5006557;28;20058;-68
2021/10/17 00:34:41;;;;;;;8.82;6.93;;;7.50;78.70;;;5.95;81.65;96363.56;4962422;28;20117;-68
2021/10/17 00:37:07;;;;;;;7.85;6.60;;;7.50;78.40;;;5.91;81.50;96359.63;4969795;28;20416;-69
2021/10/17 00:39:34;;;;;;;8.25;6.20;;;7.40;78.70;;;5.89;82.20;96361.53;4971675;28;20085;-67
2021/10/17 00:42:02;;;;;;;8.38;6.82;;;7.40;78.70;;;5.88;81.94;96365.09;4951602;28;20119;-67
2021/10/17 00:44:28;;;;;;;8.70;7.03;;;7.40;78.90;;;5.85;81.97;96361.81;4987139;28;20053;-67
2021/10/17 00:46:54;;;;;;;8.55;7.10;;;7.40;78.90;;;5.85;82.75;96361.00;4956702;28;20030;-68
2021/10/17 00:49:19;;;;;;;9.73;7.18;;;7.40;79.00;;;5.82;82.06;96366.53;4989497;28;20050;-66
2021/10/17 00:51:45;;;;;;;9.82;7.38;;;7.40;78.90;;;5.77;82.40;96359.16;4981977;28;20033;-67
2021/10/17 00:54:12;;;;;;;8.98;7.50;;;7.40;78.90;;;5.77;82.46;96366.19;5007908;28;20112;-67
2021/10/17 00:56:39;;;;;;;9.18;7.30;;;7.40;79.00;;;5.77;82.20;96363.56;4973131;28;20443;-67
2021/10/17 00:59:05;;;;;;;11.00;8.10;;;7.30;79.10;;;5.75;83.11;96360.28;4956284;28;20153;-67
2021/10/17 01:01:30;;;;;;;9.27;7.88;;;7.30;79.30;;;5.74;82.95;96369.91;4970270;28;20092;-66
2021/10/17 01:03:56;;;;;;;9.02;7.97;;;7.30;79.40;;;5.77;83.15;96353.13;4972331;28;20088;-66
2021/10/17 01:06:22;;;;;;;10.40;8.27;;;7.40;79.50;;;5.75;83.08;96349.84;4989136;28;20062;-66
2021/10/17 01:08:48;;;;;;;11.02;7.88;;;7.30;79.60;;;5.74;83.35;96354.25;4960652;28;20086;-67
2021/10/17 01:11:14;;;;;;;9.32;7.72;;;7.40;79.50;;;5.76;83.78;96346.28;4994804;28;20114;-66
2021/10/17 01:13:40;;;;;;;11.35;8.52;;;7.40;79.20;;;5.70;82.82;96339.88;4967586;28;20034;-67
2021/10/17 01:16:06;;;;;;;10.02;8.38;;;7.30;79.00;;;5.67;83.33;96327.13;4956243;28;20089;-67
2021/10/17 01:18:32;;;;;;;8.82;7.93;;;7.30;78.80;;;5.72;82.50;96334.50;4940025;28;20133;-68
2021/10/17 01:20:58;;;;;;;11.70;8.15;;;7.30;78.80;;;5.72;82.97;96327.50;4948956;28;20041;-66
2021/10/17 01:23:24;;;;;;;11.23;8.45;;;7.30;78.80;;;5.75;82.42;96323.75;4987920;28;20034;-67
2021/10/17 01:25:50;;;;;;;10.18;8.10;;;7.30;78.70;;;5.74;82.08;96325.56;4968773;28;20117;-67
2021/10/17 01:28:16;;;;;;;9.60;7.38;;;7.20;78.30;;;5.72;82.40;96318.84;4960717;28;20451;-66
2021/10/17 01:30:42;;;;;;;11.25;7.72;;;7.20;78.00;;;5.69;82.61;96325.19;4976721;28;20054;-67
2021/10/17 01:33:07;;;;;;;10.00;7.88;;;7.10;77.80;;;5.59;81.78;96319.25;4996281;28;20042;-66
2021/10/17 01:35:33;;;;;;;10.25;7.68;;;7.10;77.70;;;5.55;81.43;96328.34;4988747;28;20066;-68
2021/10/17 01:37:59;;;;;;;9.98;7.55;;;7.10;77.80;;;5.52;82.10;96329.47;4956700;28;20035;-66
2021/10/17 01:40:25;;;;;;;9.95;8.05;;;7.10;78.10;;;5.51;82.41;96317.41;4987308;28;20385;-66
2021/10/17 01:42:50;;;;;;;9.52;8.30;;;7.10;78.40;;;5.49;82.59;96328.97;4983383;28;20078;-67
2021/10/17 01:45:16;;;;;;;11.48;9.13;;;7.20;79.00;;;5.53;83.18;96325.88;4963372;28;20057;-66
2021/10/17 01:47:50;;;;;;;9.85;8.85;;;7.20;79.50;;;5.57;84.62;96326.41;4972200;28;20038;-66
2021/10/17 01:50:16;;;;;;;11.88;9.50;;;7.20;79.70;;;5.58;83.69;96327.22;4959907;28;20038;-66
2021/10/17 01:52:43;;;;;;;11.57;9.05;;;7.20;79.90;;;5.61;84.07;96326.91;4986509;28;20435;-68
2021/10/17 01:55:09;;;;;;;10.13;9.05;;;7.30;80.10;;;5.61;83.48;96326.91;4970583;28;20477;-66
2021/10/17 01:57:35;;;;;;;10.70;8.05;;;7.20;79.60;;;5.60;83.64;96325.28;4956372;28;20026;-66
2021/10/17 02:00:01;;;;;;;9.98;8.07;;;7.10;79.10;;;5.52;82.78;96324.25;4965959;28;20030;-67
2021/10/17 02:02:26;;;;;;;10.10;7.95;;;7.10;78.70;;;5.50;83.39;96326.19;4960673;28;20093;-66
2021/10/17 02:04:52;;;;;;;9.93;8.10;;;7.00;78.50;;;5.45;83.06;96325.84;4957139;28;20081;-67
2021/10/17 02:07:18;;;;;;;9.23;7.70;;;7.00;78.30;;;5.43;83.11;96322.56;4975568;28;20034;-66
2021/10/17 02:09:44;;;;;;;9.93;7.88;;;7.00;78.20;;;5.39;83.11;96329.03;4971518;28;20050;-66
2021/10/17 02:12:10;;;;;;;9.68;7.55;;;7.00;78.20;;;5.36;83.08;96321.50;4992044;28;20049;-66
2021/10/17 02:14:36;;;;;;;8.95;7.32;;;7.00;78.00;;;5.34;81.73;96320.84;4988916;28;20312;-66
2021/10/17 02:17:05;;;;;;;8.93;6.70;;;6.90;77.70;;;5.31;82.24;96318.53;4987047;28;20480;-66
2021/10/17 02:19:31;;;;;;;7.40;5.70;;;6.90;77.30;;;5.28;81.72;96325.84;4973192;28;20411;-66
2021/10/17 02:21:57;;;;;;;8.10;6.07;;;6.70;76.70;;;5.23;81.80;96321.09;4947661;28;20042;-66
2021/10/17 02:24:23;;;;;;;6.63;5.78;;;6.70;77.00;;;5.19;80.70;96327.56;4992142;28;20041;-68
2021/10/17 02:26:48;;;;;;;7.70;6.30;;;6.70;77.10;;;5.11;80.99;96315.28;4990886;28;20249;-66
2021/10/17 02:29:14;;;;;;;8.25;6.00;;;6.60;77.00;;;5.12;81.82;96323.91;4975054;28;20126;-70
2021/10/17 02:31:40;;;;;;;9.50;7.80;;;6.60;77.30;;;5.09;81.73;96332.88;5001810;28;20042;-66
2021/10/17 02:34:05;;;;;;;10.23;7.75;;;6.70;77.60;;;5.08;81.74;96335.63;4996080;28;20085;-66
2021/10/17 02:36:31;;;;;;;10.68;8.48;;;6.70;77.90;;;5.04;82.01;96334.28;4960149;28;20113;-66
2021/10/17 02:38:57;;;;;;;10.70;8.93;;;6.60;77.50;;;5.02;81.34;96320.59;4939386;28;20582;-66
2021/10/17 02:41:22;;;;;;;12.93;9.57;;;6.60;77.50;;;5.01;82.25;96334.59;4948286;28;20034;-66
2021/10/17 02:43:48;;;;;;;13.13;9.13;;;6.60;77.80;;;4.95;82.22;96332.53;4979933;28;20058;-67
2021/10/17 02:46:14;;;;;;;12.57;9.07;;;6.60;78.50;;;4.95;82.68;96338.59;4985246;28;20050;-66
2021/10/17 02:48:40;;;;;;;11.23;8.77;;;6.60;78.70;;;4.92;82.95;96337.09;4975558;28;20065;-66
2021/10/17 02:51:05;;;;;;;10.52;7.65;;;6.60;78.70;;;4.93;82.24;96338.72;4980203;28;20061;-66
2021/10/17 02:53:31;;;;;;;11.77;8.73;;;6.60;78.80;;;4.95;82.61;96333.38;5002669;28;20076;-66
2021/10/17 02:55:57;;;;;;;12.43;8.55;;;6.60;78.90;;;4.95;83.69;96333.38;4979749;28;20043;-66
2021/10/17 02:58:23;;;;;;;11.35;8.30;;;6.60;79.10;;;4.96;82.88;96335.00;4967327;28;20050;-67
2021/10/17 03:00:48;;;;;;;13.10;8.25;;;6.60;79.50;;;4.97;84.13;96338.44;4992151;28;20100;-68
2021/10/17 03:03:14;;;;;;;14.20;8.55;;;6.60;79.70;;;4.97;84.09;96336.66;4991811;28;20101;-67
2021/10/17 03:05:40;;;;;;;32.22;10.02;;;6.70;79.90;;;4.98;84.83;96330.50;4971642;28;20118;-68
2021/10/17 03:08:06;;;;;;;44.85;9.60;;;6.60;80.80;;;4.98;84.85;96335.69;4966506;28;20035;-67
2021/10/17 03:10:31;;;;;;;45.42;9.65;;;6.60;81.30;;;4.97;85.42;96333.22;4989589;28;20038;-67
2021/10/17 03:12:57;;;;;;;13.10;8.55;;;6.70;81.60;;;4.95;85.64;96330.75;4990757;28;20066;-66
2021/10/17 03:15:23;;;;;;;10.60;7.70;;;6.60;81.50;;;4.97;86.33;96333.22;4991038;28;20555;-67
2021/10/17 03:17:48;;;;;;;11.95;7.00;;;6.70;81.20;;;4.95;86.36;96329.94;4990835;28;20531;-67
2021/10/17 03:20:14;;;;;;;8.05;6.68;;;6.60;81.80;;;4.98;86.30;96342.69;4968881;28;20512;-67
2021/10/17 03:22:40;;;;;;;10.88;6.43;;;6.70;81.60;;;4.97;86.69;96328.00;4958338;28;20113;-67
2021/10/17 03:25:06;;;;;;;34.08;6.50;;;6.70;81.50;;;4.98;86.17;96329.63;4974113;28;20069;-66
2021/10/17 03:27:32;;;;;;;15.48;6.60;;;6.70;81.40;;;4.99;87.01;96332.13;4990631;28;20028;-67
2021/10/17 03:29:58;;;;;;;16.27;6.35;;;6.70;81.50;;;4.98;85.85;96329.63;4990181;28;20136;-71
2021/10/17 03:32:24;;;;;;;13.38;7.00;;;6.70;81.40;;;4.97;86.66;96328.81;5000874;28;20037;-67
2021/10/17 03:34:49;;;;;;;16.17;6.93;;;6.60;81.30;;;4.99;86.64;96342.56;4993572;28;20045;-68
2021/10/17 03:37:15;;;;;;;19.65;7.20;;;6.70;81.10;;;5.01;87.05;96331.97;4948012;28;20039;-67
2021/10/17 03:39:41;;;;;;;14.35;6.78;;;6.70;81.10;;;5.04;86.17;96329.06;4982541;28;20117;-67
2021/10/17 03:42:08;;;;;;;24.17;8.23;;;6.80;81.00;;;5.06;86.61;96333.16;4952681;28;20045;-67
2021/10/17 03:44:33;;;;;;;15.45;8.63;;;6.70;80.90;;;5.06;86.95;96327.13;4988555;28;20038;-67
2021/10/17 03:46:59;;;;;;;63.22;9.70;;;6.70;81.30;;;5.07;86.58;96328.78;4989947;28;20457;-69
2021/10/17 03:49:25;;;;;;;40.80;9.23;;;6.70;81.20;;;5.06;86.24;96332.34;4990614;28;20500;-67
2021/10/17 03:51:50;;;;;;;23.10;9.48;;;6.70;81.30;;;5.04;86.09;96323.84;4957924;28;20514;-67
2021/10/17 03:54:16;;;;;;;16.98;9.52;;;6.70;81.60;;;5.03;87.05;96333.47;5000685;28;20034;-67
2021/10/17 03:56:42;;;;;;;34.28;9.43;;;6.70;81.40;;;5.00;86.68;96332.94;4990063;28;20124;-67
2021/10/17 03:59:07;;;;;;;19.38;8.35;;;6.60;81.20;;;4.98;85.65;96333.09;4956155;28;20029;-67
2021/10/17 04:01:33;;;;;;;15.60;8.15;;;6.60;81.00;;;4.92;86.29;96329.28;4991203;28;20034;-67
2021/10/17 04:03:59;;;;;;;14.93;8.45;;;6.60;81.00;;;4.92;85.75;96342.31;4990035;28;20404;-67
2021/10/17 04:06:25;;;;;;;12.80;7.97;;;6.60;80.60;;;4.89;85.46;96326.16;4990059;28;20045;-67
2021/10/17 04:08:50;;;;;;;10.98;8.43;;;6.50;80.50;;;4.84;85.55;96331.00;4989804;28;20041;-67
2021/10/17 04:11:16;;;;;;;9.25;7.25;;;6.50;80.60;;;4.78;85.64;96324.59;4996270;28;20104;-67
2021/10/17 04:13:42;;;;;;;32.05;8.25;;;6.40;80.30;;;4.73;84.88;96329.41;4984996;28;20033;-67
2021/10/17 04:16:07;;;;;;;13.05;7.40;;;6.20;80.10;;;4.68;85.53;96328.22;4994057;28;20038;-67
2021/10/17 04:18:33;;;;;;;9.55;7.43;;;6.10;80.70;;;4.64;85.71;96335.50;4989741;28;20388;-67
2021/10/17 04:20:59;;;;;;;17.20;8.07;;;6.10;80.50;;;4.55;85.41;96328.56;4972314;28;20148;-66
2021/10/17 04:23:25;;;;;;;25.45;8.57;;;6.00;80.40;;;4.47;84.78;96336.28;4970552;28;20108;-67
2021/10/17 04:25:51;;;;;;;11.18;8.40;;;5.90;80.70;;;4.37;85.40;96327.72;4988773;28;20030;-67
2021/10/17 04:28:16;;;;;;;10.35;8.10;;;5.80;81.00;;;4.33;85.36;96328.97;4957772;28;20559;-68
2021/10/17 04:30:42;;;;;;;10.43;9.32;;;5.90;80.70;;;4.32;85.46;96332.53;4965407;28;20641;-68
2021/10/17 04:33:08;;;;;;;24.80;14.07;;;5.90;80.60;;;4.33;84.89;96334.19;4994268;28;20407;-67
2021/10/17 04:35:38;;;;;;;13.18;9.55;;;5.90;80.60;;;4.28;85.61;96331.97;4969901;28;20043;-67
2021/10/17 04:38:05;;;;;;;21.63;12.45;;;5.90;80.50;;;4.29;85.43;96329.22;4973481;28;20031;-67
2021/10/17 04:40:31;;;;;;;21.27;13.55;;;6.00;80.50;;;4.28;85.09;96327.59;4940887;28;20427;-67
2021/10/17 04:42:57;;;;;;;51.22;10.68;;;5.90;80.40;;;4.26;85.40;96324.31;4968161;28;20187;-68
2021/10/17 04:45:22;;;;;;;12.95;10.60;;;5.80;80.10;;;4.24;84.72;96318.44;4971755;28;21912;-67
2021/10/17 04:47:48;;;;;;;44.85;9.90;;;5.90;80.30;;;4.18;84.69;96318.19;5005483;28;20062;-67
2021/10/17 04:50:14;;;;;;;73.35;11.18;;;5.60;80.40;;;4.05;85.14;96315.91;4998258;28;20042;-67
2021/10/17 04:52:40;;;;;;;12.38;10.52;;;5.50;81.00;;;4.04;85.10;96314.28;4959717;28;20034;-68
2021/10/17 04:55:08;;;;;;;12.15;9.65;;;5.60;81.10;;;4.02;85.23;96311.00;4989006;28;20070;-68
2021/10/17 04:57:34;;;;;;;17.65;10.07;;;5.60;81.10;;;4.01;85.53;96306.75;4956464;28;20027;-68
2021/10/17 05:00:02;;;;;;;17.63;10.23;;;5.60;81.10;;;4.00;85.42;96302.50;4956737;28;20464;-67
2021/10/17 05:02:28;;;;;;;25.58;10.45;;;5.70;81.00;;;4.01;85.50;96306.75;4972636;28;20066;-67
2021/10/17 05:04:53;;;;;;;25.98;10.05;;;5.70;81.10;;;4.01;85.66;96301.53;4956481;28;20393;-68
2021/10/17 05:07:19;;;;;;;30.15;10.20;;;5.70;81.10;;;4.02;85.85;96311.00;4989881;28;20046;-67
2021/10/17 05:09:45;;;;;;;38.28;9.43;;;5.70;81.40;;;4.00;85.91;96315.53;4972468;28;20030;-68
2021/10/17 05:12:10;;;;;;;31.20;10.10;;;5.60;81.20;;;3.97;86.40;96311.44;4988519;28;20031;-68
2021/10/17 05:14:36;;;;;;;20.73;10.10;;;5.60;81.40;;;3.96;86.32;96312.41;4980150;28;20038;-68
2021/10/17 05:17:02;;;;;;;11.88;9.40;;;5.60;81.80;;;3.96;85.84;96312.41;4970513;28;20057;-67
2021/10/17 05:19:28;;;;;;;23.92;9.20;;;5.70;81.80;;;3.96;86.42;96308.97;4972389;28;20042;-67
2021/10/17 05:21:54;;;;;;;42.28;8.98;;;5.60;81.70;;;3.91;86.48;96314.59;4985075;28;20034;-68
2021/10/17 05:24:19;;;;;;;39.42;9.20;;;5.60;81.70;;;3.91;86.37;96314.59;4973376;28;20102;-68
2021/10/17 05:26:45;;;;;;;14.07;9.60;;;5.60;81.80;;;3.91;86.52;96316.41;4970131;28;20039;-69
2021/10/17 05:29:11;;;;;;;48.90;9.85;;;5.60;82.10;;;3.91;86.97;96305.97;4984394;28;20034;-69
2021/10/17 05:31:37;;;;;;;43.20;9.68;;;5.60;82.00;;;3.88;87.30;96320.09;4967350;28;20077;-71
2021/10/17 05:34:02;;;;;;;52.08;9.80;;;5.50;82.30;;;3.84;86.64;96313.50;4970367;28;20046;-71
2021/10/17 05:36:29;;;;;;;19.90;9.70;;;5.50;82.50;;;3.85;87.12;96316.97;4971758;28;20061;-70
2021/10/17 05:38:55;;;;;;;10.82;9.02;;;5.50;82.30;;;3.82;86.89;96315.44;4953142;28;20125;-69
2021/10/17 05:41:22;;;;;;;15.30;9.13;;;5.60;82.30;;;3.81;87.02;96318.19;4998516;28;20046;-67
2021/10/17 05:43:49;;;;;;;47.70;9.30;;;5.60;82.20;;;3.82;87.29;96325.03;4977147;28;20049;-68
2021/10/17 05:46:15;;;;;;;35.55;10.50;;;5.60;82.00;;;3.79;87.18;96314.91;4977155;28;20516;-68
2021/10/17 05:48:40;;;;;;;42.70;10.32;;;5.60;82.10;;;3.82;87.25;96325.03;4980200;28;20034;-68
2021/10/17 05:51:06;;;;;;;29.92;10.60;;;5.60;81.80;;;3.80;87.47;96322.56;4983071;28;20130;-68
2021/10/17 05:53:32;;;;;;;15.88;10.43;;;5.60;81.80;;;3.82;87.33;96332.84;4974261;28;20035;-68
2021/10/17 05:55:57;;;;;;;14.07;10.45;;;5.60;81.90;;;3.79;87.31;96327.91;4984807;28;20038;-68
2021/10/17 05:58:23;;;;;;;15.23;10.55;;;5.60;82.30;;;3.81;87.25;96328.59;4988280;28;20034;-68
2021/10/17 06:00:49;;;;;;;33.72;10.90;;;5.60;82.10;;;3.80;87.81;96321.75;4987367;28;20527;-68
2021/10/17 06:03:14;;;;;;;18.10;10.73;;;5.60;82.10;;;3.83;87.53;96331.88;4972088;28;20035;-68
2021/10/17 06:05:40;;;;;;;15.38;10.57;;;5.60;82.10;;;3.85;87.85;96335.19;4968639;28;20047;-68
2021/10/17 06:08:06;;;;;;;32.35;12.52;;;5.70;82.20;;;3.87;88.33;96341.88;4967984;28;20049;-66
2021/10/17 06:10:32;;;;;;;34.08;12.85;;;5.70;82.10;;;3.91;88.13;96342.41;4984053;28;20141;-67
2021/10/17 06:12:58;;;;;;;15.80;11.52;;;5.70;82.20;;;3.93;87.85;96348.28;4970738;28;20069;-66
2021/10/17 06:15:24;;;;;;;21.17;10.70;;;5.80;82.10;;;3.95;87.96;96341.97;4980170;28;20034;-67
2021/10/17 06:17:49;;;;;;;11.52;9.68;;;5.80;81.60;;;3.97;87.90;96344.44;4989299;28;20081;-68
2021/10/17 06:20:15;;;;;;;10.02;8.77;;;5.90;81.40;;;4.01;88.08;96348.41;4979606;28;20042;-67
2021/10/17 06:22:41;;;;;;;16.95;8.93;;;5.90;81.00;;;4.02;88.02;96346.63;4957635;28;20034;-67
2021/10/17 06:25:07;;;;;;;17.42;11.15;;;5.90;80.80;;;4.08;87.73;96346.06;4952306;28;20069;-67
2021/10/17 06:27:32;;;;;;;23.27;11.38;;;6.10;80.90;;;4.11;87.99;96349.19;4988760;28;20082;-67
2021/10/17 06:29:58;;;;;;;33.45;15.73;;;6.10;80.90;;;4.13;88.19;96349.88;4963823;28;20406;-67
2021/10/17 06:32:24;;;;;;;31.85;10.77;;;6.10;81.00;;;4.20;87.78;96350.13;4974919;28;20022;-67
2021/10/17 06:34:50;;;;;;;64.93;39.15;;;6.20;81.00;;;4.24;88.30;96359.28;4988821;28;20569;-68
2021/10/17 06:37:15;;;;;;;42.92;16.52;;;6.30;81.20;;;4.30;88.42;96362.16;4987583;28;20038;-68
2021/10/17 06:39:41;;;;;;;27.63;11.35;;;6.40;80.30;;;4.25;88.14;96347.88;4988492;28;20038;-70
2021/10/17 06:42:08;;;;;;;12.25;9.55;;;6.40;80.00;;;4.33;87.91;96361.03;4971980;28;20069;-69
2021/10/17 06:44:34;;;;;;;30.60;16.63;;;6.40;80.10;;;4.38;87.48;96371.00;4986877;28;20035;-67
2021/10/17 06:47:00;;;;;;;17.20;12.57;;;6.40;79.30;;;4.40;87.56;96371.69;5003739;28;20042;-69
2021/10/17 06:49:26;;;;;;;14.75;11.05;;;6.40;79.30;;;4.43;87.14;96377.41;4993059;28;20038;-71
2021/10/17 06:51:51;;;;;;;16.98;8.18;;;6.40;79.00;;;4.43;86.40;96380.03;4996202;28;20030;-69
2021/10/17 06:54:17;;;;;;;7.97;7.18;;;6.50;77.90;;;4.49;86.05;96378.63;4988125;28;20088;-68
2021/10/17 06:56:45;;;;;;;14.38;6.93;;;6.50;77.90;;;4.46;86.09;96371.94;4971444;28;20570;-67
2021/10/17 06:59:11;;;;;;;7.68;6.70;;;6.50;77.30;;;4.47;85.56;96383.16;4988036;28;20516;-67
2021/10/17 07:01:36;;;;;;;13.18;7.45;;;6.50;77.20;;;4.52;86.38;96380.94;4988872;28;20038;-69
2021/10/17 07:04:02;;;;;;;9.77;7.97;;;6.60;77.30;;;4.60;85.66;96383.66;4952221;28;20042;-68
2021/10/17 07:06:28;;;;;;;11.90;7.40;;;6.60;77.50;;;4.64;85.61;96389.41;4990589;28;20034;-67
2021/10/17 07:08:54;;;;;;;10.52;7.22;;;6.60;77.50;;;4.70;85.06;96389.63;4975651;28;20081;-70
2021/10/17 07:11:19;;;;;;;7.60;6.90;;;6.70;77.40;;;4.70;85.05;96389.63;4983574;28;20069;-69
2021/10/17 07:13:45;;;;;;;11.70;7.10;;;6.70;77.60;;;4.79;85.48;96393.97;4955965;28;20042;-69
2021/10/17 07:16:13;;;;;;;14.40;6.50;;;6.80;77.30;;;4.80;84.98;96395.63;4981624;28;20455;-69
2021/10/17 07:18:38;;;;;;;7.97;6.80;;;6.70;76.80;;;4.82;85.04;96388.47;4991561;28;20035;-69
2021/10/17 07:21:04;;;;;;;8.88;7.68;;;6.90;77.00;;;4.85;84.53;96388.19;4984498;28;20156;-70
2021/10/17 07:23:30;;;;;;;10.32;7.20;;;6.80;77.10;;;4.86;84.75;96384.59;4962870;28;20055;-69
2021/10/17 07:25:55;;;;;;;10.20;6.25;;;6.90;77.10;;;4.92;84.12;96388.41;4961783;28;20045;-69
2021/10/17 07:28:21;;;;;;;8.93;6.10;;;7.00;76.50;;;4.99;84.65;96399.09;4991301;28;20041;-70
2021/10/17 07:30:47;;;;;;;11.00;6.35;;;7.20;76.10;;;5.09;85.16;96392.00;4977510;28;20041;-72
2021/10/17 07:33:13;;;;;;;7.25;6.55;;;7.40;75.80;;;5.21;84.90;96399.47;4979421;28;20049;-71
2021/10/17 07:35:38;;;;;;;9.38;7.03;;;7.60;75.50;;;5.32;83.93;96401.03;4958632;28;20046;-72
2021/10/17 07:38:04;;;;;;;13.23;7.30;;;7.60;75.40;;;5.34;83.97;96391.28;4972980;28;20165;-71
2021/10/17 07:40:30;;;;;;;8.10;7.30;;;7.60;75.20;;;5.44;84.55;96399.84;4990441;28;20500;-69
2021/10/17 07:42:56;;;;;;;9.88;7.22;;;7.60;75.10;;;5.49;84.31;96397.63;4988663;28;20037;-70
2021/10/17 07:45:21;;;;;;;12.23;10.20;;;7.80;74.50;;;5.65;84.57;96396.09;4956645;28;20046;-69
2021/10/17 07:47:47;;;;;;;9.65;8.65;;;8.10;74.50;;;5.72;84.20;96397.16;4990055;28;20042;-70
2021/10/17 07:50:13;;;;;;;14.07;12.63;;;8.10;74.30;;;5.86;84.38;96399.19;4957459;28;20039;-70
2021/10/17 07:52:38;;;;;;;14.52;9.27;;;8.40;74.80;;;6.05;84.46;96393.81;4967668;28;20081;-70
2021/10/17 07:55:05;;;;;;;12.63;8.32;;;8.60;73.40;;;6.16;83.53;96397.16;4991116;28;20069;-70
2021/10/17 07:57:47;;;;;;;12.77;11.48;;;8.60;73.00;;;6.30;83.44;96400.00;4974493;28;20046;-71
2021/10/17 08:00:16;;;;;;;11.07;9.98;;;8.70;72.90;;;6.41;83.72;96398.94;4966502;28;20399;-71
2021/10/17 08:02:42;;;;;;;12.57;11.20;;;8.90;72.80;;;6.52;83.14;96396.03;4987794;28;20034;-68
2021/10/17 08:05:08;;;;;;;10.88;9.73;;;9.00;72.60;;;6.65;83.19;96401.66;4996312;28;20404;-68
2021/10/17 08:07:34;;;;;;;10.15;9.15;;;9.10;73.00;;;6.78;82.73;96405.59;4993938;28;20104;-68
2021/10/17 08:10:00;;;;;;;8.65;7.85;;;9.20;72.20;;;6.86;83.17;96403.03;4973304;28;20459;-69
2021/10/17 08:12:26;;;;;;;9.02;7.40;;;9.40;72.60;;;7.02;82.33;96413.56;4960086;28;20042;-68
2021/10/17 08:14:52;;;;;;;8.43;7.28;;;9.50;71.50;;;7.07;81.93;96398.22;4998023;28;20134;-68
2021/10/17 08:17:18;;;;;;;7.40;6.70;;;9.60;70.90;;;7.21;82.42;96407.22;4987487;28;20031;-67
2021/10/17 08:19:43;;;;;;;11.73;9.98;;;9.70;71.80;;;7.35;82.19;96414.44;4988120;28;20080;-68
2021/10/17 08:22:09;;;;;;;13.02;11.05;;;9.80;72.20;;;7.48;81.50;96403.53;4969109;28;20045;-68
2021/10/17 08:24:35;;;;;;;11.85;10.32;;;9.80;72.20;;;7.55;81.49;96409.72;4973629;28;20065;-69
2021/10/17 08:27:00;;;;;;;10.27;9.27;;;9.80;70.90;;;7.60;80.79;96408.25;4983086;28;20512;-67
2021/10/17 08:29:26;;;;;;;10.32;9.23;;;9.80;71.20;;;7.64;80.39;96408.75;4992882;28;20038;-68
2021/10/17 08:31:52;;;;;;;9.68;8.07;;;9.80;71.40;;;7.70;80.50;96412.53;4996548;28;20077;-67
2021/10/17 08:34:17;;;;;;;9.15;8.27;;;9.90;71.00;;;7.72;80.21;96414.00;4989521;28;20058;-67
2021/10/17 08:36:43;;;;;;;15.32;13.77;;;9.90;71.40;;;7.75;80.83;96413.69;4988909;28;20039;-67
2021/10/17 08:39:09;;;;;;;12.20;11.00;;;9.90;71.40;;;7.78;80.24;96415.97;4956081;28;20062;-67
2021/10/17 08:41:35;;;;;;;9.68;8.77;;;10.00;71.00;;;7.79;80.08;96425.47;4988238;28;20038;-67
2021/10/17 08:44:02;;;;;;;9.50;8.60;;;10.00;71.10;;;7.84;80.02;96420.53;4972431;28;20038;-68
2021/10/17 08:46:27;;;;;;;9.70;8.70;;;10.10;71.10;;;7.92;79.90;96417.94;4965017;28;20094;-67
2021/10/17 08:48:55;;;;;;;9.15;8.30;;;10.20;70.60;;;8.01;79.91;96431.03;4964705;28;20389;-68
2021/10/17 08:51:24;;;;;;;8.68;7.82;;;10.30;70.90;;;8.05;79.46;96417.41;4973012;28;20516;-68
2021/10/17 08:53:50;;;;;;;9.10;8.30;;;10.40;70.10;;;8.17;80.21;96425.78;4988640;28;20492;-69
2021/10/17 08:56:16;;;;;;;8.50;7.70;;;10.60;69.80;;;8.28;79.81;96420.19;5002298;28;20038;-68
2021/10/17 08:58:42;;;;;;;11.07;9.32;;;10.80;69.70;;;8.41;79.61;96425.75;4972191;28;20062;-68
2021/10/17 09:01:17;;;;;;;9.43;8.52;;;10.90;69.10;;;8.57;79.74;96428.31;4965737;28;20034;-68
2021/10/17 09:03:52;;;;;;;9.55;8.65;;;11.20;68.90;;;8.71;78.73;96424.19;4972341;28;20222;-68
2021/10/17 09:06:19;;;;;;;10.32;9.27;;;11.30;68.20;;;8.82;78.10;96426.44;4962345;28;20046;-69
2021/10/17 09:08:45;;;;;;;11.85;9.15;;;11.40;67.90;;;8.88;78.49;96420.53;4969455;28;20027;-69
2021/10/17 09:11:12;;;;;;;9.38;8.48;;;11.40;67.80;;;8.99;78.02;96427.19;4971152;28;20034;-69
2021/10/17 09:14:01;;;;;;;9.88;8.88;;;11.50;67.60;;;9.08;77.62;96415.69;4951517;28;20022;-68
2021/10/17 09:16:28;;;;;;;10.30;9.23;;;11.70;67.40;;;9.13;78.04;96423.84;4972575;28;20080;-69
2021/10/17 09:19:12;;;;;;;10.02;9.02;;;11.70;67.60;;;9.27;77.60;96424.09;4988035;28;20033;-70
2021/10/17 09:22:13;;;;;;;9.20;8.30;;;11.80;67.60;;;9.37;76.93;96419.47;4969475;28;20490;-69
2021/10/17 09:24:41;;;;;;;8.65;7.80;;;11.80;67.30;;;9.45;77.25;96419.41;4988265;28;20503;-69
2021/10/17 09:27:18;;;;;;;10.13;9.13;;;11.90;67.90;;;9.49;77.16;96410.19;4988198;28;20038;-69
2021/10/17 09:29:48;;;;;;;15.35;11.73;;;11.90;67.60;;;9.61;77.32;96419.31;4956193;28;20031;-68
2021/10/17 09:32:19;;;;;;;10.65;9.52;;;12.10;67.60;;;9.63;76.62;96412.06;4980542;28;20034;-68
2021/10/17 09:34:59;;;;;;;11.50;9.55;;;12.10;66.90;;;9.69;77.43;96419.22;4999596;28;20034;-69
2021/10/17 09:37:39;;;;;;;11.18;10.07;;;12.10;67.20;;;9.73;76.61;96410.03;4987076;28;20544;-69
2021/10/17 09:40:20;;;;;;;10.32;9.32;;;12.10;67.20;;;9.78;76.90;96409.50;4951481;28;20045;-69
2021/10/17 09:43:15;;;;;;;10.90;9.75;;;12.10;67.30;;;9.83;77.13;96421.09;4942449;28;20030;-69
2021/10/17 09:45:42;;;;;;;10.75;9.63;;;12.10;67.70;;;9.85;77.52;96417.47;4979194;28;20069;-70
2021/10/17 09:48:10;;;;;;;11.30;10.10;;;12.20;67.80;;;9.87;77.20;96415.50;4956476;28;20065;-70
2021/10/17 09:50:36;;;;;;;11.60;10.45;;;12.10;67.00;;;9.90;76.50;96420.41;4970716;28;20411;-70
2021/10/17 09:53:04;;;;;;;11.43;10.30;;;12.10;67.80;;;9.96;77.10;96425.78;4986970;28;20088;-69
2021/10/17 09:55:32;;;;;;;11.55;10.45;;;12.30;67.50;;;10.02;76.69;96421.63;4981312;28;20041;-70
2021/10/17 09:57:58;;;;;;;12.25;10.95;;;12.40;67.60;;;9.99;76.59;96424.59;4953306;28;20145;-70
2021/10/17 10:00:24;;;;;;;20.52;18.33;;;12.30;66.70;;;10.04;76.94;96428.34;4987735;28;20044;-69
2021/10/17 10:02:51;;;;;;;14.48;12.98;;;12.40;67.20;;;10.11;75.86;96425.81;4971729;28;20039;-71
2021/10/17 10:05:27;;;;;;;15.38;13.77;;;12.50;66.60;;;10.14;76.21;96428.06;4987753;28;20060;-70
2021/10/17 10:07:53;;;;;;;12.57;11.30;;;12.50;66.40;;;10.21;76.64;96423.78;4972118;28;20121;-71
2021/10/17 10:10:19;;;;;;;12.32;11.13;;;12.60;66.50;;;10.25;76.15;96425.06;4939121;28;20415;-68
2021/10/17 10:12:45;;;;;;;12.48;11.18;;;12.60;66.60;;;10.26;75.63;96424.06;4997180;28;20030;-71
2021/10/17 10:15:10;;;;;;;13.15;11.75;;;12.60;66.80;;;10.31;76.11;96413.81;4953629;28;20041;-71
2021/10/17 10:17:38;;;;;;;12.85;11.65;;;12.60;67.00;;;10.37;77.13;96413.09;4972031;28;20112;-72
2021/10/17 10:20:04;;;;;;;15.52;12.85;;;12.70;67.40;;;10.41;76.97;96419.66;4971594;28;20042;-71
2021/10/17 10:22:32;;;;;;;15.55;13.00;;;12.80;66.50;;;10.42;75.76;96404.69;4970338;28;20114;-67